createdAt,value
2019-02-06T00:02:49.018Z,52.77
2019-02-06T00:06:52.749Z,54.40
2019-02-06T00:10:56.046Z,55.33
2019-02-06T00:14:59.871Z,47.93
2019-02-06T00:19:03.749Z,55.10
2019-02-06T00:23:07.170Z,50.40
2019-02-06T00:27:10.471Z,51.87
2019-02-06T00:31:15.000Z,55.60
2019-02-06T00:35:25.542Z,50.77
2019-02-06T00:39:24.190Z,46.50
2019-02-06T00:43:27.493Z,47.90
2019-02-06T00:47:31.278Z,58.17
2019-02-06T00:51:35.007Z,50.90
2019-02-06T00:55:38.728Z,54.37
2019-02-06T00:59:42.023Z,46.17
2019-02-06T01:03:45.827Z,48.60
2019-02-06T01:07:49.224Z,46.40
2019-02-06T01:11:52.514Z,43.87
2019-02-06T01:15:55.818Z,38.80
2019-02-06T01:19:59.121Z,38.77
2019-02-06T01:24:03.401Z,38.27
2019-02-06T01:28:06.687Z,29.87
2019-02-06T01:32:10.674Z,34.90
2019-02-06T01:36:13.974Z,35.63
2019-02-06T01:40:17.822Z,29.03
2019-02-06T01:44:21.563Z,29.90
2019-02-06T01:48:25.650Z,29.63
2019-02-06T01:52:28.949Z,28.00
2019-02-06T01:56:33.014Z,24.73
2019-02-06T02:00:37.689Z,28.17
2019-02-06T02:04:40.994Z,26.90
2019-02-06T02:08:48.162Z,22.53
2019-02-06T02:12:51.842Z,20.40
2019-02-06T02:16:55.140Z,20.07
2019-02-06T02:20:58.898Z,20.70
2019-02-06T02:25:02.193Z,17.53
2019-02-06T02:29:06.026Z,16.83
2019-02-06T02:33:09.996Z,13.20
2019-02-06T02:37:13.302Z,13.03
2019-02-06T02:41:17.081Z,14.10
2019-02-06T02:45:20.899Z,12.00
2019-02-06T02:49:24.274Z,11.60
2019-02-06T02:53:27.582Z,10.40
2019-02-06T02:57:30.966Z,13.40
2019-02-06T03:01:52.283Z,12.73
2019-02-06T03:05:55.637Z,13.17
2019-02-06T03:09:59.765Z,11.30
2019-02-06T03:14:03.490Z,13.33
2019-02-06T03:18:07.674Z,10.97
2019-02-06T03:22:11.054Z,11.83
2019-02-06T03:26:14.427Z,14.20
2019-02-06T03:30:18.321Z,11.97
2019-02-06T03:34:22.034Z,16.43
2019-02-06T03:38:25.338Z,11.20
2019-02-06T03:42:29.147Z,11.50
2019-02-06T03:46:32.962Z,12.70
2019-02-06T03:50:36.700Z,15.67
2019-02-06T03:54:39.998Z,12.43
2019-02-06T03:58:43.734Z,12.20
2019-02-06T04:02:47.479Z,12.60
2019-02-06T04:06:55.071Z,12.60
2019-02-06T04:10:55.794Z,12.73
2019-02-06T04:14:59.106Z,12.90
2019-02-06T04:19:02.406Z,15.03
2019-02-06T04:23:06.230Z,13.93
2019-02-06T04:27:09.814Z,15.27
2019-02-06T04:31:13.547Z,14.97
2019-02-06T04:35:17.361Z,13.13
2019-02-06T04:39:21.090Z,15.00
2019-02-06T04:43:24.394Z,13.93
2019-02-06T04:47:27.697Z,14.57
2019-02-06T04:51:31.369Z,13.13
2019-02-06T04:55:34.646Z,15.90
2019-02-06T04:59:37.947Z,15.40
2019-02-06T05:03:41.311Z,13.90
2019-02-06T05:07:44.683Z,11.80
2019-02-06T05:11:48.424Z,14.87
2019-02-06T05:15:51.710Z,16.47
2019-02-06T05:19:55.448Z,20.33
2019-02-06T05:23:58.777Z,15.80
2019-02-06T05:28:02.328Z,15.00
2019-02-06T05:32:06.267Z,13.37
2019-02-06T05:36:09.634Z,17.27
2019-02-06T05:40:13.102Z,15.90
2019-02-06T05:44:16.782Z,14.93
2019-02-06T05:48:20.592Z,14.90
2019-02-06T05:52:24.717Z,13.87
2019-02-06T05:56:28.030Z,14.20
2019-02-06T06:00:36.014Z,14.00
2019-02-06T06:04:39.827Z,15.57
2019-02-06T06:08:43.138Z,13.37
2019-02-06T06:12:46.585Z,12.13
2019-02-06T06:16:50.315Z,13.70
2019-02-06T06:20:53.623Z,14.30
2019-02-06T06:24:57.163Z,15.93
2019-02-06T06:29:00.748Z,19.93
2019-02-06T06:33:04.563Z,13.60
2019-02-06T06:37:08.299Z,12.77
2019-02-06T06:41:11.586Z,11.70
2019-02-06T06:45:17.955Z,19.20
2019-02-06T06:49:21.683Z,16.93
2019-02-06T06:53:25.426Z,13.80
2019-02-06T06:57:28.710Z,14.27
2019-02-06T07:01:32.714Z,14.07
2019-02-06T07:05:36.120Z,36.63
2019-02-06T07:09:39.791Z,15.50
2019-02-06T07:13:43.079Z,13.90
2019-02-06T07:17:46.454Z,14.73
2019-02-06T07:21:50.459Z,14.03
2019-02-06T07:25:54.151Z,13.70
2019-02-06T07:29:57.714Z,16.60
2019-02-06T07:34:02.062Z,14.07
2019-02-06T07:38:05.934Z,14.60
2019-02-06T07:42:09.346Z,15.90
2019-02-06T07:46:12.639Z,13.20
2019-02-06T07:50:21.783Z,13.03
2019-02-06T07:54:25.750Z,14.07
2019-02-06T07:58:29.199Z,15.37
2019-02-06T08:02:32.958Z,16.83
2019-02-06T08:06:36.693Z,22.30
2019-02-06T08:10:40.982Z,19.20
2019-02-06T08:14:44.990Z,18.27
2019-02-06T08:18:48.370Z,16.43
2019-02-06T08:22:52.342Z,18.77
2019-02-06T08:26:56.098Z,22.27
2019-02-06T08:30:59.394Z,17.50
2019-02-06T08:35:03.175Z,18.00
2019-02-06T08:39:07.843Z,20.13
2019-02-06T08:43:11.270Z,18.20
2019-02-06T08:47:14.574Z,23.53
2019-02-06T08:51:17.874Z,23.07
2019-02-06T08:55:22.170Z,26.87
2019-02-06T08:59:25.478Z,27.07
2019-02-06T09:03:29.213Z,27.47
2019-02-06T09:07:32.506Z,26.67
2019-02-06T09:11:35.888Z,29.77
2019-02-06T09:15:39.178Z,31.40
2019-02-06T09:19:42.844Z,27.53
2019-02-06T09:23:46.140Z,33.43
2019-02-06T09:27:49.954Z,30.50
2019-02-06T09:31:53.305Z,32.20
2019-02-06T09:35:56.687Z,34.67
2019-02-06T09:40:00.577Z,33.97
2019-02-06T09:44:04.018Z,35.40
2019-02-06T09:48:07.557Z,39.80
2019-02-06T09:52:10.878Z,34.57
2019-02-06T09:56:14.312Z,34.57
2019-02-06T10:00:19.058Z,35.03
2019-02-06T10:04:22.904Z,39.00
2019-02-06T10:08:26.273Z,33.63
2019-02-06T10:12:29.631Z,32.03
2019-02-06T10:16:33.014Z,31.53
2019-02-06T10:20:42.308Z,36.10
2019-02-06T10:24:45.622Z,36.70
2019-02-06T10:28:49.788Z,34.80
2019-02-06T10:32:54.685Z,38.43
2019-02-06T10:36:58.039Z,39.20
2019-02-06T10:41:04.611Z,38.97
2019-02-06T10:45:08.651Z,41.37
2019-02-06T10:49:13.883Z,33.20
2019-02-06T10:53:17.370Z,42.27
2019-02-06T10:57:20.705Z,38.23
2019-02-06T11:01:24.632Z,34.97
2019-02-06T11:05:28.681Z,33.90
2019-02-06T11:09:32.466Z,41.47
2019-02-06T11:13:35.927Z,31.60
2019-02-06T11:17:39.824Z,32.60
2019-02-06T11:21:43.625Z,35.33
2019-02-06T11:25:47.062Z,32.00
2019-02-06T11:29:50.697Z,34.10
2019-02-06T11:33:54.175Z,31.63
2019-02-06T11:37:57.885Z,35.33
2019-02-06T11:42:01.329Z,34.60
2019-02-06T11:46:04.789Z,38.10
2019-02-06T11:50:10.970Z,36.57
2019-02-06T11:54:14.865Z,38.57
2019-02-06T11:58:18.309Z,32.50
2019-02-06T12:02:24.193Z,34.00
2019-02-06T12:06:28.083Z,31.40
2019-02-06T12:10:31.539Z,30.03
2019-02-06T12:14:34.914Z,32.00
2019-02-06T12:18:38.318Z,30.27
2019-02-06T12:22:42.370Z,34.83
2019-02-06T12:26:46.148Z,28.67
2019-02-06T12:30:50.032Z,31.90
2019-02-06T12:34:53.442Z,29.80
2019-02-06T12:38:57.260Z,31.03
2019-02-06T12:43:00.674Z,25.10
2019-02-06T12:47:04.308Z,24.73
2019-02-06T12:51:08.176Z,25.30
2019-02-06T12:55:19.551Z,24.00
2019-02-06T12:59:21.744Z,28.23
2019-02-06T13:03:25.153Z,23.17
2019-02-06T13:07:28.554Z,23.07
2019-02-06T13:11:32.347Z,21.23
2019-02-06T13:15:36.272Z,22.57
2019-02-06T13:19:39.554Z,27.00
2019-02-06T13:23:43.561Z,23.50
2019-02-06T13:27:47.476Z,22.07
2019-02-06T13:31:51.538Z,22.90
2019-02-06T13:35:54.824Z,21.47
2019-02-06T13:39:58.110Z,28.43
2019-02-06T13:44:01.398Z,21.90
2019-02-06T13:48:04.803Z,25.17
2019-02-06T13:52:08.531Z,26.10
2019-02-06T13:56:12.614Z,25.73
2019-02-06T14:00:21.802Z,24.57
2019-02-06T14:04:25.630Z,28.63
2019-02-06T14:08:29.391Z,27.77
2019-02-06T14:12:33.074Z,29.73
2019-02-06T14:16:37.147Z,32.03
2019-02-06T14:20:40.684Z,30.07
2019-02-06T14:25:24.166Z,31.30
2019-02-06T14:30:00.366Z,31.37
2019-02-06T14:34:36.718Z,35.40
2019-02-06T14:38:58.174Z,34.97
2019-02-06T14:43:54.758Z,31.13
2019-02-06T14:48:38.492Z,30.13
2019-02-06T14:52:54.731Z,36.80
2019-02-06T14:57:06.638Z,36.30
2019-02-06T15:01:20.733Z,33.93
2019-02-06T15:05:34.488Z,35.60
2019-02-06T15:09:57.385Z,41.07
2019-02-06T15:14:28.906Z,37.43
2019-02-06T15:18:36.475Z,34.90
2019-02-06T15:22:47.350Z,30.97
2019-02-06T15:27:09.068Z,32.77
2019-02-06T15:31:31.686Z,40.00
2019-02-06T15:35:54.312Z,34.70
2019-02-06T15:40:16.966Z,37.17
2019-02-06T15:44:43.335Z,34.87
2019-02-06T15:49:08.954Z,34.87
2019-02-06T15:53:38.347Z,36.40
2019-02-06T15:58:11.441Z,36.07
2019-02-06T16:02:24.727Z,39.00
2019-02-06T16:07:01.819Z,36.20
2019-02-06T16:11:27.462Z,41.87
2019-02-06T16:15:42.558Z,35.17
2019-02-06T16:20:14.446Z,35.27
2019-02-06T16:24:23.578Z,36.97
2019-02-06T16:28:46.179Z,36.83
2019-02-06T16:33:01.803Z,39.00
2019-02-06T16:37:37.186Z,34.80
2019-02-06T16:41:53.087Z,36.47
2019-02-06T16:46:06.511Z,42.40
2019-02-06T16:50:46.481Z,39.13
2019-02-06T16:55:09.056Z,42.43
2019-02-06T16:59:53.971Z,49.03
2019-02-06T17:04:31.653Z,36.80
2019-02-06T17:08:48.733Z,39.23
2019-02-06T17:13:20.592Z,40.50
2019-02-06T17:17:46.450Z,52.97
2019-02-06T17:22:18.418Z,58.00
2019-02-06T17:26:35.051Z,50.60
2019-02-06T17:31:16.099Z,43.40
2019-02-06T17:35:44.584Z,43.50
2019-02-06T17:40:26.684Z,44.97
2019-02-06T17:45:05.052Z,40.50
2019-02-06T17:49:12.822Z,44.50
2019-02-06T17:53:28.600Z,48.27
2019-02-06T17:57:32.432Z,44.53
2019-02-06T18:01:37.938Z,40.87
2019-02-06T18:05:41.261Z,42.50
2019-02-06T18:09:44.679Z,40.10
2019-02-06T18:13:48.031Z,36.40
2019-02-06T18:17:51.942Z,42.97
2019-02-06T18:21:55.490Z,40.23
2019-02-06T18:25:59.462Z,36.83
2019-02-06T18:30:03.648Z,38.07
2019-02-06T18:34:09.038Z,44.00
2019-02-06T18:38:12.533Z,47.27
2019-02-06T18:42:15.986Z,41.07
2019-02-06T18:46:20.127Z,43.10
2019-02-06T18:50:23.940Z,42.77
2019-02-06T18:54:27.931Z,45.70
2019-02-06T18:58:31.839Z,50.47
2019-02-06T19:02:35.699Z,47.77
2019-02-06T19:06:39.392Z,50.80
2019-02-06T19:10:43.106Z,50.87
2019-02-06T19:14:46.947Z,61.73
2019-02-06T19:18:50.530Z,52.47
2019-02-06T19:22:55.696Z,62.40
2019-02-06T19:26:59.270Z,58.23
2019-02-06T19:31:02.885Z,67.73
2019-02-06T19:35:06.978Z,56.80
2019-02-06T19:39:10.707Z,63.23
2019-02-06T19:43:14.257Z,50.87
2019-02-06T19:47:18.101Z,56.90
2019-02-06T19:51:21.600Z,49.27
2019-02-06T19:55:25.439Z,60.23
2019-02-06T19:59:29.460Z,55.70
2019-02-06T20:03:33.148Z,56.97
2019-02-06T20:07:36.495Z,52.40
2019-02-06T20:11:40.195Z,60.50
2019-02-06T20:15:43.955Z,57.23
2019-02-06T20:19:47.870Z,277.30
2019-02-06T20:23:51.264Z,238.67
2019-02-06T20:27:56.637Z,59.57
2019-02-06T20:32:03.315Z,54.97
2019-02-06T20:36:07.254Z,52.37
2019-02-06T20:40:12.491Z,54.83
2019-02-06T20:44:15.881Z,50.60
2019-02-06T20:48:20.376Z,51.00
2019-02-06T20:52:23.790Z,56.53
2019-02-06T20:56:27.375Z,51.13
2019-02-06T21:00:33.627Z,55.53
2019-02-06T21:04:37.076Z,51.23
2019-02-06T21:08:40.957Z,50.90
2019-02-06T21:12:44.360Z,57.20
2019-02-06T21:16:48.272Z,54.10
2019-02-06T21:20:52.032Z,51.37
2019-02-06T21:24:55.851Z,44.90
2019-02-06T21:28:59.436Z,63.67
2019-02-06T21:33:03.604Z,67.00
2019-02-06T21:37:06.932Z,57.63
2019-02-06T21:41:10.567Z,53.93
2019-02-06T21:45:15.455Z,50.63
2019-02-06T21:49:19.254Z,65.17
2019-02-06T21:53:22.870Z,59.13
2019-02-06T21:57:26.174Z,61.50
2019-02-06T22:01:29.478Z,62.00
2019-02-06T22:05:32.763Z,62.03
2019-02-06T22:09:36.595Z,69.60
2019-02-06T22:13:39.897Z,72.20
2019-02-06T22:17:43.846Z,56.37
2019-02-06T22:21:47.191Z,62.97
2019-02-06T22:25:50.930Z,62.93
2019-02-06T22:29:54.403Z,65.20
2019-02-06T22:33:58.130Z,65.30
2019-02-06T22:38:01.858Z,62.87
2019-02-06T22:42:05.918Z,71.70
2019-02-06T22:46:10.014Z,70.23
2019-02-06T22:50:14.194Z,66.77
2019-02-06T22:54:17.478Z,64.07
2019-02-06T22:58:21.516Z,58.07
2019-02-06T23:02:25.643Z,59.17
2019-02-06T23:06:29.318Z,54.67
2019-02-06T23:10:33.043Z,56.53
2019-02-06T23:14:36.342Z,52.80
2019-02-06T23:18:40.078Z,54.77
2019-02-06T23:22:43.874Z,47.30
2019-02-06T23:26:47.618Z,51.10
2019-02-06T23:30:50.910Z,44.43
2019-02-06T23:34:54.918Z,43.07
2019-02-06T23:38:58.930Z,41.10
2019-02-06T23:43:02.695Z,40.83
2019-02-06T23:47:05.992Z,33.80
2019-02-06T23:51:09.297Z,31.13
2019-02-06T23:55:12.962Z,31.20
2019-02-06T23:59:16.262Z,32.70
